Time;durP1;ratioP1;P1;durP2;ratioP2;P2;SDS_P1;SDS_P2;PMS_P1;PMS_P2;Temp;Humidity;BMP_temperature;BMP_pressure;BME280_temperature;BME280_humidity;BME280_pressure;Samples;Min_cycle;Max_cycle;Signal;HPM_P1;HPM_P2
2021/04/18 00:00:30;;;;;;;15.95;7.40;;;8.40;99.90;;;;;;5110131;28;20656;-75
2021/04/18 00:02:55;;;;;;;17.50;6.65;;;8.40;99.90;;;;;;5105436;28;20170;-75
2021/04/18 00:05:24;;;;;;;16.08;8.05;;;8.40;99.90;;;;;;5112710;28;20248;-76
2021/04/18 00:07:50;;;;;;;20.92;8.18;;;8.40;99.90;;;;;;5113718;28;20192;-76
2021/04/18 00:10:18;;;;;;;22.00;8.07;;;8.40;99.90;;;;;;5114421;28;20157;-75
2021/04/18 00:12:43;;;;;;;26.13;8.25;;;8.50;99.90;;;;;;5110732;28;20178;-75
2021/04/18 00:15:11;;;;;;;24.27;8.65;;;8.40;99.90;;;;;;5092191;28;20206;-76
2021/04/18 00:17:38;;;;;;;23.77;8.80;;;8.40;99.90;;;;;;5093511;28;20174;-75
2021/04/18 00:20:07;;;;;;;13.95;7.78;;;8.30;99.90;;;;;;5093577;28;20161;-75
2021/04/18 00:22:32;;;;;;;21.67;8.20;;;8.30;99.90;;;;;;5110797;28;20188;-75
2021/04/18 00:24:58;;;;;;;21.63;9.43;;;8.20;99.90;;;;;;5113570;28;20613;-76
2021/04/18 00:27:24;;;;;;;18.35;8.75;;;8.30;99.90;;;;;;5097058;28;20203;-75
2021/04/18 00:29:49;;;;;;;13.02;8.05;;;8.30;99.90;;;;;;5103106;28;20181;-75
2021/04/18 00:32:15;;;;;;;19.00;8.32;;;8.30;99.90;;;;;;5105991;28;20186;-75
2021/04/18 00:34:40;;;;;;;13.07;8.32;;;8.30;99.90;;;;;;5093481;28;20219;-75
2021/04/18 00:37:06;;;;;;;17.80;8.65;;;8.20;99.90;;;;;;5104783;28;20189;-75
2021/04/18 00:39:31;;;;;;;20.35;8.68;;;8.30;99.90;;;;;;5114110;28;20240;-75
2021/04/18 00:41:57;;;;;;;24.65;9.80;;;8.20;99.90;;;;;;5091930;28;20174;-75
2021/04/18 00:44:23;;;;;;;14.73;8.10;;;8.20;99.90;;;;;;5100745;28;20204;-76
2021/04/18 00:46:48;;;;;;;16.20;8.23;;;8.10;99.90;;;;;;5111836;28;20173;-75
2021/04/18 00:49:14;;;;;;;18.48;9.15;;;8.20;99.90;;;;;;5105394;28;20610;-75
2021/04/18 00:51:39;;;;;;;23.83;8.90;;;8.00;99.90;;;;;;5109334;28;20162;-75
2021/04/18 00:54:05;;;;;;;13.27;8.85;;;8.10;99.90;;;;;;5091959;28;20553;-75
2021/04/18 00:56:31;;;;;;;22.35;9.55;;;8.10;99.90;;;;;;5092147;28;20185;-75
2021/04/18 00:58:57;;;;;;;14.30;9.05;;;8.00;99.90;;;;;;5091988;28;20259;-75
2021/04/18 01:01:22;;;;;;;17.13;8.88;;;8.00;99.90;;;;;;5104330;28;20545;-76
2021/04/18 01:03:48;;;;;;;15.05;8.90;;;8.10;99.90;;;;;;5113495;28;20178;-76
2021/04/18 01:06:13;;;;;;;18.60;9.68;;;8.10;99.90;;;;;;5111028;28;20194;-76
2021/04/18 01:08:39;;;;;;;18.83;8.93;;;8.10;99.90;;;;;;5105385;28;20261;-75
2021/04/18 01:11:05;;;;;;;22.00;9.93;;;8.00;99.90;;;;;;5109716;28;20173;-75
2021/04/18 01:13:30;;;;;;;23.88;10.48;;;8.00;99.90;;;;;;5101879;28;20224;-75
2021/04/18 01:15:56;;;;;;;18.17;9.13;;;8.10;99.90;;;;;;5128047;28;20168;-77
2021/04/18 01:18:22;;;;;;;13.88;9.27;;;8.10;99.90;;;;;;5125536;27;20178;-75
2021/04/18 01:20:47;;;;;;;22.27;9.77;;;8.00;99.90;;;;;;5110883;28;20193;-76
2021/04/18 01:23:13;;;;;;;16.23;8.70;;;8.10;99.90;;;;;;5112846;28;20173;-75
2021/04/18 01:25:42;;;;;;;33.03;10.57;;;8.00;99.90;;;;;;5113763;28;20200;-75
2021/04/18 01:28:09;;;;;;;19.75;9.15;;;7.90;99.90;;;;;;5094881;28;20256;-77
2021/04/18 01:30:36;;;;;;;24.65;9.30;;;8.00;99.90;;;;;;5102293;28;20165;-76
2021/04/18 01:33:03;;;;;;;17.58;10.38;;;7.80;99.90;;;;;;5108304;28;20310;-75
2021/04/18 01:35:30;;;;;;;27.63;9.95;;;7.80;99.90;;;;;;5093134;28;20245;-75
2021/04/18 01:37:56;;;;;;;20.05;10.02;;;7.80;99.90;;;;;;5092047;28;20182;-75
2021/04/18 01:40:23;;;;;;;19.80;10.63;;;7.80;99.90;;;;;;5096025;28;20210;-75
2021/04/18 01:42:49;;;;;;;20.25;10.82;;;7.80;99.90;;;;;;5107543;28;20264;-75
2021/04/18 01:45:17;;;;;;;23.60;10.88;;;7.70;99.90;;;;;;5116968;28;20205;-75
2021/04/18 01:47:43;;;;;;;18.58;9.27;;;7.70;99.90;;;;;;5116013;28;20548;-75
2021/04/18 01:50:12;;;;;;;17.63;9.60;;;7.70;99.90;;;;;;5117181;28;20256;-75
2021/04/18 01:52:38;;;;;;;13.98;9.18;;;7.70;99.90;;;;;;5117092;28;20248;-75
2021/04/18 01:55:06;;;;;;;26.67;9.25;;;7.70;99.90;;;;;;5100849;28;20534;-75
2021/04/18 01:57:33;;;;;;;19.98;8.25;;;7.50;99.90;;;;;;5104932;28;20174;-75
2021/04/18 01:59:59;;;;;;;15.98;9.30;;;7.30;99.90;;;;;;5114847;28;20176;-77
2021/04/18 02:02:25;;;;;;;16.15;8.63;;;7.10;99.90;;;;;;5107831;28;20238;-77
2021/04/18 02:04:53;;;;;;;11.98;9.45;;;7.00;99.90;;;;;;5116895;28;20178;-76
2021/04/18 02:07:18;;;;;;;14.98;8.80;;;6.90;99.90;;;;;;5103545;28;20227;-75
2021/04/18 02:09:44;;;;;;;19.35;9.13;;;6.90;99.90;;;;;;5110215;28;20169;-75
2021/04/18 02:12:10;;;;;;;28.88;11.10;;;6.90;99.90;;;;;;5116084;28;20208;-75
2021/04/18 02:14:36;;;;;;;26.60;10.73;;;7.10;99.90;;;;;;5114608;28;20193;-75
2021/04/18 02:17:03;;;;;;;28.57;11.77;;;7.10;99.90;;;;;;5108943;28;20312;-76
2021/04/18 02:19:29;;;;;;;18.87;10.80;;;7.20;99.90;;;;;;5104022;28;20248;-76
2021/04/18 02:21:56;;;;;;;27.50;11.85;;;7.20;99.90;;;;;;5115202;28;20673;-75
2021/04/18 02:24:22;;;;;;;25.80;11.17;;;7.20;99.90;;;;;;5114877;28;20173;-75
2021/04/18 02:26:47;;;;;;;24.10;11.50;;;7.20;99.90;;;;;;5114660;28;20223;-75
2021/04/18 02:29:13;;;;;;;22.07;12.00;;;7.10;99.90;;;;;;5094521;28;20581;-77
2021/04/18 02:31:39;;;;;;;33.60;12.30;;;7.10;99.90;;;;;;5095446;28;20248;-76
2021/04/18 02:34:05;;;;;;;17.30;11.20;;;7.00;99.90;;;;;;5114643;28;20215;-76
2021/04/18 02:36:30;;;;;;;20.75;12.55;;;6.90;99.90;;;;;;5115982;28;20519;-75
2021/04/18 02:38:56;;;;;;;29.17;12.57;;;6.90;99.90;;;;;;5114835;28;20177;-75
2021/04/18 02:41:22;;;;;;;23.00;11.83;;;7.00;99.90;;;;;;5115911;28;20223;-75
2021/04/18 02:43:48;;;;;;;21.90;10.70;;;7.10;99.90;;;;;;5096393;28;20696;-75
2021/04/18 02:46:14;;;;;;;16.77;11.18;;;7.00;99.90;;;;;;5116130;28;20166;-77
2021/04/18 02:48:40;;;;;;;15.63;10.13;;;7.00;99.90;;;;;;5114047;28;20173;-76
2021/04/18 02:51:05;;;;;;;22.80;10.63;;;6.80;99.90;;;;;;5097303;28;20172;-75
2021/04/18 02:53:31;;;;;;;24.57;10.30;;;6.70;99.90;;;;;;5100896;28;20197;-76
2021/04/18 02:55:57;;;;;;;14.80;10.83;;;6.70;99.90;;;;;;5106368;28;20181;-76
2021/04/18 02:58:23;;;;;;;17.43;9.97;;;6.80;99.90;;;;;;5100709;28;20178;-75
2021/04/18 03:00:49;;;;;;;13.03;10.27;;;6.70;99.90;;;;;;5095225;28;20166;-76
2021/04/18 03:03:15;;;;;;;15.73;10.57;;;6.60;99.90;;;;;;5115371;28;20295;-77
2021/04/18 03:05:40;;;;;;;19.67;11.47;;;6.50;99.90;;;;;;5114866;28;20196;-75
2021/04/18 03:08:06;;;;;;;22.93;10.90;;;6.40;99.90;;;;;;5113252;28;20173;-76
2021/04/18 03:10:32;;;;;;;16.93;10.57;;;6.30;99.90;;;;;;5113681;28;20242;-76
2021/04/18 03:12:58;;;;;;;19.93;10.97;;;6.30;99.90;;;;;;5099596;28;20560;-75
2021/04/18 03:15:23;;;;;;;21.40;10.53;;;6.30;99.90;;;;;;5113696;28;20183;-75
2021/04/18 03:17:50;;;;;;;27.53;12.83;;;6.20;99.90;;;;;;5114241;28;20632;-75
2021/04/18 03:20:16;;;;;;;23.77;13.03;;;6.20;99.90;;;;;;5114440;28;20188;-76
2021/04/18 03:22:42;;;;;;;21.87;12.13;;;6.40;99.90;;;;;;5106978;28;20170;-76
2021/04/18 03:25:08;;;;;;;25.37;12.37;;;6.30;99.90;;;;;;5094671;28;20633;-76
2021/04/18 03:27:34;;;;;;;28.73;13.03;;;6.20;99.90;;;;;;5100027;28;20240;-75
2021/04/18 03:30:00;;;;;;;17.60;10.53;;;6.20;99.90;;;;;;5112585;28;20697;-75
2021/04/18 03:32:26;;;;;;;19.57;11.43;;;6.10;99.90;;;;;;5102732;28;20213;-76
2021/04/18 03:34:52;;;;;;;23.90;11.50;;;6.00;99.90;;;;;;5094698;28;20228;-76
2021/04/18 03:37:18;;;;;;;25.83;12.00;;;6.00;99.90;;;;;;5094102;28;20553;-75
2021/04/18 03:39:43;;;;;;;27.13;12.50;;;5.90;99.90;;;;;;5104780;28;20178;-76
2021/04/18 03:42:09;;;;;;;22.00;12.50;;;6.00;99.90;;;;;;5114794;28;20172;-75
2021/04/18 03:44:35;;;;;;;20.90;12.93;;;5.90;99.90;;;;;;5104744;27;20178;-75
2021/04/18 03:47:01;;;;;;;18.60;11.33;;;5.90;99.90;;;;;;5093628;28;20227;-76
2021/04/18 03:49:27;;;;;;;21.37;12.67;;;5.90;99.90;;;;;;5102025;28;20256;-75
2021/04/18 03:51:53;;;;;;;27.33;12.87;;;5.80;99.90;;;;;;5114650;28;20615;-75
2021/04/18 03:54:21;;;;;;;14.73;11.17;;;5.70;99.90;;;;;;5106761;28;20229;-76
2021/04/18 03:56:48;;;;;;;24.40;12.43;;;5.70;99.90;;;;;;5094458;28;20158;-75
2021/04/18 03:59:13;;;;;;;14.90;11.60;;;5.70;99.90;;;;;;5113614;28;20507;-75
2021/04/18 04:01:39;;;;;;;17.90;12.17;;;5.70;99.90;;;;;;5111953;28;20166;-75
2021/04/18 04:04:05;;;;;;;20.90;12.33;;;5.80;99.90;;;;;;5113443;28;20274;-75
2021/04/18 04:06:30;;;;;;;19.73;12.47;;;5.80;99.90;;;;;;5106825;28;20561;-76
2021/04/18 04:08:56;;;;;;;21.93;13.80;;;5.80;99.90;;;;;;5092528;28;20181;-75
2021/04/18 04:11:21;;;;;;;30.13;14.47;;;5.80;99.90;;;;;;5097500;28;20189;-75
2021/04/18 04:13:47;;;;;;;20.33;12.00;;;5.70;99.90;;;;;;5110061;28;20549;-75
2021/04/18 04:16:12;;;;;;;26.63;14.03;;;5.60;99.90;;;;;;5095502;28;20311;-75
2021/04/18 04:18:38;;;;;;;24.50;13.70;;;5.50;99.90;;;;;;5102426;28;20713;-75
2021/04/18 04:21:05;;;;;;;23.77;13.67;;;5.40;99.90;;;;;;5112901;28;20173;-75
2021/04/18 04:23:30;;;;;;;26.30;13.10;;;5.40;99.90;;;;;;5112385;28;20173;-76
2021/04/18 04:25:56;;;;;;;20.67;13.83;;;5.50;99.90;;;;;;5092530;28;20670;-76
2021/04/18 04:28:22;;;;;;;22.20;14.20;;;5.50;99.90;;;;;;5093156;28;20177;-75
2021/04/18 04:30:47;;;;;;;19.63;12.40;;;5.50;99.90;;;;;;5100971;28;20173;-76
2021/04/18 04:33:13;;;;;;;23.03;13.90;;;5.50;99.90;;;;;;5113336;28;20191;-75
2021/04/18 04:35:40;;;;;;;23.57;15.23;;;5.50;99.90;;;;;;5114176;28;20226;-75
2021/04/18 04:38:06;;;;;;;20.43;13.83;;;5.60;99.90;;;;;;5100066;28;20174;-75
2021/04/18 04:40:32;;;;;;;30.67;14.90;;;5.60;99.90;;;;;;5094066;28;20173;-76
2021/04/18 04:42:58;;;;;;;29.10;13.80;;;5.50;99.90;;;;;;5130740;27;20524;-76
2021/04/18 04:45:23;;;;;;;22.93;14.80;;;5.40;99.90;;;;;;5114105;28;20157;-76
2021/04/18 04:47:49;;;;;;;22.33;13.70;;;5.30;99.90;;;;;;5111557;28;20622;-76
2021/04/18 04:50:15;;;;;;;23.87;13.13;;;5.30;99.90;;;;;;5112368;28;20181;-75
2021/04/18 04:52:40;;;;;;;21.10;12.83;;;5.30;99.90;;;;;;5112867;28;20168;-75
2021/04/18 04:55:07;;;;;;;23.13;12.77;;;5.40;99.90;;;;;;5112960;28;20226;-75
2021/04/18 04:57:32;;;;;;;18.80;13.53;;;5.40;99.90;;;;;;5112443;28;20174;-75
2021/04/18 04:59:58;;;;;;;23.10;14.13;;;5.40;99.90;;;;;;5095247;28;20178;-75
2021/04/18 05:02:23;;;;;;;25.67;14.40;;;5.40;99.90;;;;;;5098447;28;20649;-76
2021/04/18 05:04:49;;;;;;;30.23;14.00;;;5.50;99.90;;;;;;5110071;28;20184;-76
2021/04/18 05:07:15;;;;;;;24.60;13.93;;;5.50;99.90;;;;;;5092199;28;20207;-75
2021/04/18 05:09:40;;;;;;;34.10;15.37;;;5.50;99.90;;;;;;5108457;28;20199;-75
2021/04/18 05:12:08;;;;;;;22.73;14.63;;;5.60;99.90;;;;;;5113628;28;20170;-75
2021/04/18 05:14:33;;;;;;;16.97;13.97;;;5.70;99.90;;;;;;5115022;28;20193;-76
2021/04/18 05:16:59;;;;;;;23.13;14.67;;;5.80;99.90;;;;;;5116821;28;20690;-75
2021/04/18 05:19:25;;;;;;;24.33;13.57;;;5.70;99.90;;;;;;5115765;28;20173;-75
2021/04/18 05:21:50;;;;;;;28.17;11.97;;;5.80;99.90;;;;;;5116608;28;20169;-75
2021/04/18 05:24:16;;;;;;;19.17;11.80;;;5.90;99.90;;;;;;5109864;28;20185;-76
2021/04/18 05:26:42;;;;;;;16.50;12.07;;;6.00;99.90;;;;;;5095992;28;20170;-75
2021/04/18 05:29:07;;;;;;;19.80;11.53;;;6.00;99.90;;;;;;5100177;28;20614;-75
2021/04/18 05:31:33;;;;;;;21.43;11.07;;;6.20;99.90;;;;;;5097802;28;20631;-76
2021/04/18 05:33:59;;;;;;;16.33;12.20;;;6.20;99.90;;;;;;5097077;28;20323;-76
2021/04/18 05:36:24;;;;;;;17.13;12.37;;;6.30;99.90;;;;;;5096992;28;20176;-75
2021/04/18 05:38:50;;;;;;;23.20;13.13;;;6.30;99.90;;;;;;5100244;28;20191;-75
2021/04/18 05:41:16;;;;;;;22.97;11.00;;;6.40;99.90;;;;;;5116188;28;20256;-75
2021/04/18 05:43:41;;;;;;;27.70;11.77;;;6.50;99.90;;;;;;5117331;28;20508;-75
2021/04/18 05:46:07;;;;;;;16.97;12.63;;;6.60;99.90;;;;;;5115204;28;20520;-75
2021/04/18 05:48:33;;;;;;;21.40;12.20;;;6.70;99.90;;;;;;5115492;28;20204;-77
2021/04/18 05:50:58;;;;;;;17.00;11.60;;;6.80;99.90;;;;;;5117278;28;20169;-75
2021/04/18 05:53:24;;;;;;;18.63;11.70;;;7.00;99.90;;;;;;5114889;28;20197;-75
2021/04/18 05:55:50;;;;;;;14.27;11.30;;;7.20;99.90;;;;;;5115938;28;20176;-74
2021/04/18 05:58:16;;;;;;;17.73;10.80;;;7.40;99.90;;;;;;5097751;28;20174;-75
2021/04/18 06:00:42;;;;;;;15.37;10.67;;;7.60;99.90;;;;;;5110182;28;20631;-75
2021/04/18 06:03:08;;;;;;;19.52;10.82;;;7.80;99.90;;;;;;5106162;28;20170;-75
2021/04/18 06:05:34;;;;;;;16.65;9.50;;;8.00;99.90;;;;;;5116098;28;20169;-78
2021/04/18 06:07:59;;;;;;;16.23;9.82;;;8.20;99.90;;;;;;5114641;28;20177;-75
2021/04/18 06:10:25;;;;;;;16.38;10.52;;;8.40;99.90;;;;;;5103486;28;20170;-75
2021/04/18 06:12:51;;;;;;;15.10;9.77;;;8.50;99.90;;;;;;5096380;28;20591;-76
2021/04/18 06:15:16;;;;;;;17.02;10.18;;;8.50;99.90;;;;;;5094648;28;20650;-76
2021/04/18 06:17:42;;;;;;;19.00;9.93;;;8.60;99.90;;;;;;5107019;28;20176;-75
2021/04/18 06:20:08;;;;;;;14.57;9.57;;;8.80;99.90;;;;;;5105278;28;20261;-75
2021/04/18 06:22:35;;;;;;;15.88;9.48;;;8.90;99.90;;;;;;5094830;28;20193;-76
2021/04/18 06:25:01;;;;;;;15.35;10.07;;;9.10;99.90;;;;;;5106950;28;20173;-76
2021/04/18 06:27:27;;;;;;;16.13;8.80;;;9.20;99.90;;;;;;5114668;28;20180;-76
2021/04/18 06:29:52;;;;;;;15.60;9.57;;;9.30;99.90;;;;;;5103036;28;20617;-76
2021/04/18 06:32:18;;;;;;;11.13;8.88;;;9.50;99.90;;;;;;5110006;28;20184;-75
2021/04/18 06:34:44;;;;;;;17.50;10.50;;;9.60;99.90;;;;;;5110175;28;20194;-75
2021/04/18 06:37:09;;;;;;;17.27;10.55;;;9.80;99.90;;;;;;5095906;28;20207;-75
2021/04/18 06:39:35;;;;;;;18.23;11.60;;;10.00;99.90;;;;;;5097220;28;20186;-76
2021/04/18 06:42:03;;;;;;;24.15;13.18;;;10.20;99.90;;;;;;5097954;28;20218;-76
2021/04/18 06:44:30;;;;;;;27.05;13.45;;;10.40;99.90;;;;;;5114354;28;20234;-75
2021/04/18 06:46:58;;;;;;;32.85;13.02;;;10.60;99.90;;;;;;5116075;28;20166;-76
2021/04/18 06:49:25;;;;;;;34.50;15.93;;;10.90;99.90;;;;;;5105298;28;20219;-77
2021/04/18 06:51:52;;;;;;;27.58;14.98;;;11.60;99.90;;;;;;5095621;28;20169;-77
2021/04/18 06:54:19;;;;;;;18.25;12.23;;;13.20;99.90;;;;;;5093595;28;20280;-76
2021/04/18 06:56:45;;;;;;;21.50;11.40;;;15.80;99.90;;;;;;5111227;28;20173;-76
2021/04/18 06:59:12;;;;;;;27.50;11.48;;;17.80;99.90;;;;;;5114528;28;20167;-77
2021/04/18 07:01:38;;;;;;;16.48;9.65;;;19.70;99.90;;;;;;5110034;28;20512;-77
2021/04/18 07:04:11;;;;;;;19.70;9.90;;;21.80;99.90;;;;;;5094468;28;20174;-77
2021/04/18 07:06:38;;;;;;;20.98;9.70;;;23.30;99.90;;;;;;5094090;28;20166;-77
2021/04/18 07:09:04;;;;;;;19.30;10.18;;;24.10;98.80;;;;;;5094822;28;20174;-77
2021/04/18 07:11:45;;;;;;;20.70;10.15;;;25.00;95.80;;;;;;5112346;28;20188;-77
2021/04/18 07:14:22;;;;;;;14.95;8.27;;;25.70;94.00;;;;;;5115165;28;20629;-80
2021/04/18 07:16:48;;;;;;;13.27;8.50;;;27.20;91.50;;;;;;5112585;28;20188;-78
2021/04/18 07:19:26;;;;;;;14.65;9.00;;;28.30;88.30;;;;;;5108668;28;20174;-77
2021/04/18 07:21:54;;;;;;;15.15;8.77;;;28.90;83.70;;;;;;5093764;28;20568;-77
2021/04/18 07:24:21;;;;;;;14.48;7.88;;;29.00;81.30;;;;;;5113119;28;20169;-76
2021/04/18 07:27:05;;;;;;;16.77;8.93;;;28.90;80.60;;;;;;5114010;28;20178;-76
2021/04/18 07:29:33;;;;;;;13.70;8.55;;;28.90;79.50;;;;;;5101069;28;20178;-77
2021/04/18 07:31:59;;;;;;;11.13;7.85;;;29.30;78.40;;;;;;5076413;28;20197;-78
2021/04/18 07:34:34;;;;;;;21.48;8.60;;;29.90;75.20;;;;;;5131898;27;20216;-78
2021/04/18 07:37:07;;;;;;;11.43;8.30;;;29.80;75.00;;;;;;5112542;28;20242;-77
2021/04/18 07:39:56;;;;;;;10.55;7.00;;;29.50;74.20;;;;;;5114390;28;20173;-76
2021/04/18 07:42:36;;;;;;;9.48;6.75;;;28.10;76.60;;;;;;5115051;28;20149;-76
2021/04/18 07:45:09;;;;;;;10.45;6.97;;;28.90;77.10;;;;;;5114874;28;20235;-78
2021/04/18 07:47:37;;;;;;;14.30;7.85;;;29.80;74.50;;;;;;5118889;27;20248;-77
2021/04/18 07:50:12;;;;;;;12.52;7.60;;;29.70;73.30;;;;;;5114041;27;20169;-77
2021/04/18 07:52:43;;;;;;;15.13;7.20;;;30.60;72.80;;;;;;5113217;28;20154;-78
2021/04/18 07:55:10;;;;;;;9.80;7.35;;;31.40;70.70;;;;;;5114564;28;20219;-80
2021/04/18 07:57:36;;;;;;;12.45;6.78;;;32.10;68.40;;;;;;5114615;28;20176;-78
2021/04/18 08:00:04;;;;;;;14.25;7.28;;;32.40;66.00;;;;;;5112844;28;20177;-78
2021/04/18 08:02:30;;;;;;;11.55;6.38;;;31.80;64.60;;;;;;5112327;28;20277;-77
2021/04/18 08:04:56;;;;;;;11.10;6.80;;;31.40;64.80;;;;;;5114174;28;20507;-77
2021/04/18 08:07:23;;;;;;;13.48;7.05;;;31.80;62.90;;;;;;5113269;28;20180;-77
2021/04/18 08:10:25;;;;;;;11.88;6.35;;;32.00;63.30;;;;;;5114044;28;20170;-78
2021/04/18 08:13:23;;;;;;;13.95;5.95;;;32.60;62.90;;;;;;5093849;28;20171;-79
2021/04/18 08:16:01;;;;;;;8.63;5.85;;;33.00;60.10;;;;;;5105582;28;20165;-78
2021/04/18 08:18:37;;;;;;;11.07;5.95;;;33.50;59.20;;;;;;5112008;28;20165;-78
2021/04/18 08:21:23;;;;;;;10.27;6.32;;;33.40;59.40;;;;;;5114051;28;20214;-78
2021/04/18 08:23:50;;;;;;;9.38;6.32;;;33.90;58.90;;;;;;5113962;28;20164;-78
2021/04/18 08:26:17;;;;;;;10.95;6.47;;;34.30;57.70;;;;;;5114150;28;20161;-78
2021/04/18 08:28:52;;;;;;;8.60;6.53;;;34.30;57.60;;;;;;5113089;28;20479;-78
2021/04/18 08:31:23;;;;;;;7.80;5.80;;;33.10;58.00;;;;;;5112565;28;20206;-82
2021/04/18 08:33:53;;;;;;;10.77;6.53;;;32.20;58.50;;;;;;5112118;28;20253;-81
2021/04/18 08:36:22;;;;;;;10.93;6.75;;;32.70;58.00;;;;;;5112176;28;20203;-82
2021/04/18 08:39:09;;;;;;;11.07;6.43;;;33.30;57.50;;;;;;5112520;28;20165;-89
2021/04/18 08:41:49;;;;;;;16.85;6.97;;;33.80;57.80;;;;;;5114201;28;20602;-87
2021/04/18 08:44:38;;;;;;;11.25;7.65;;;33.30;56.20;;;;;;5116332;28;20157;-88
2021/04/18 08:47:10;;;;;;;13.70;7.15;;;33.60;57.00;;;;;;5115208;28;20180;-86
2021/04/18 08:49:37;;;;;;;10.38;6.70;;;33.20;55.80;;;;;;5119990;28;20172;-84
2021/04/18 08:52:06;;;;;;;7.55;5.85;;;33.10;56.70;;;;;;5120924;28;20240;-85
2021/04/18 08:54:43;;;;;;;15.10;6.82;;;33.80;56.40;;;;;;5120348;28;20721;-77
2021/04/18 08:57:24;;;;;;;7.35;6.20;;;34.60;55.10;;;;;;5120759;28;20157;-76
2021/04/18 08:59:56;;;;;;;12.32;7.22;;;35.80;54.40;;;;;;5120562;28;20193;-76
2021/04/18 09:02:22;;;;;;;15.65;7.55;;;36.40;53.70;;;;;;5120605;28;20244;-76
2021/04/18 09:04:51;;;;;;;8.00;6.50;;;35.60;52.60;;;;;;5120641;28;20213;-75
2021/04/18 09:07:19;;;;;;;12.77;5.45;;;36.10;52.60;;;;;;5119319;28;20665;-76
2021/04/18 09:09:46;;;;;;;8.02;5.60;;;36.20;50.50;;;;;;5120703;28;20251;-76
2021/04/18 09:12:13;;;;;;;8.35;6.15;;;34.90;51.10;;;;;;5120618;28;20601;-76
2021/04/18 09:14:43;;;;;;;9.23;5.72;;;34.30;52.40;;;;;;5120601;28;20193;-77
2021/04/18 09:17:16;;;;;;;7.38;5.25;;;34.70;52.10;;;;;;5120652;27;20540;-76
2021/04/18 09:19:48;;;;;;;7.00;6.00;;;35.60;51.80;;;;;;5120634;28;20161;-76
2021/04/18 09:22:32;;;;;;;7.35;5.10;;;34.20;51.30;;;;;;5120425;28;20213;-76
2021/04/18 09:25:06;;;;;;;8.10;4.85;;;34.50;51.40;;;;;;5119305;28;20164;-76
2021/04/18 09:27:34;;;;;;;15.05;5.82;;;35.50;50.10;;;;;;5120635;28;20149;-76
2021/04/18 09:30:09;;;;;;;8.68;5.68;;;35.60;49.70;;;;;;5119201;28;20202;-76
2021/04/18 09:32:36;;;;;;;14.05;7.07;;;34.70;51.70;;;;;;5120329;28;20176;-76
2021/04/18 09:35:03;;;;;;;9.32;6.68;;;34.30;52.90;;;;;;5120194;28;20621;-75
2021/04/18 09:37:35;;;;;;;13.90;6.53;;;35.30;52.00;;;;;;5120423;28;20165;-76
2021/04/18 09:40:13;;;;;;;17.35;6.07;;;35.50;51.20;;;;;;5119157;28;20251;-76
2021/04/18 09:42:45;;;;;;;7.80;6.13;;;35.00;51.80;;;;;;5120263;28;20250;-76
2021/04/18 09:45:16;;;;;;;9.60;6.75;;;34.40;50.80;;;;;;5120382;28;20585;-76
2021/04/18 09:47:47;;;;;;;6.97;6.03;;;34.10;52.20;;;;;;5119790;28;20517;-76
2021/04/18 09:50:18;;;;;;;6.72;4.63;;;33.40;52.10;;;;;;5120321;28;20252;-76
2021/04/18 09:52:46;;;;;;;9.77;6.18;;;33.20;52.50;;;;;;5118958;28;20218;-75
2021/04/18 09:55:22;;;;;;;12.50;6.32;;;32.10;53.10;;;;;;5120209;28;20299;-75
2021/04/18 09:57:55;;;;;;;13.18;6.22;;;31.20;54.30;;;;;;5120064;28;20161;-76
2021/04/18 10:00:31;;;;;;;6.05;4.88;;;30.60;55.30;;;;;;5116268;28;20186;-76
2021/04/18 10:03:00;;;;;;;14.18;5.38;;;30.00;55.50;;;;;;5116571;28;20252;-75
2021/04/18 10:05:27;;;;;;;7.35;6.22;;;30.30;54.30;;;;;;5115648;28;20157;-76
2021/04/18 10:08:15;;;;;;;10.45;5.65;;;30.90;55.20;;;;;;5116862;28;20557;-76
2021/04/18 10:10:41;;;;;;;7.57;4.75;;;31.30;54.30;;;;;;5116807;28;20165;-76
2021/04/18 10:13:07;;;;;;;9.93;5.57;;;31.50;54.40;;;;;;5115412;28;20174;-76
2021/04/18 10:15:33;;;;;;;8.20;4.90;;;32.60;53.30;;;;;;5116994;28;20200;-75
2021/04/18 10:18:11;;;;;;;6.90;4.85;;;32.10;52.80;;;;;;5116229;28;20195;-75
2021/04/18 10:20:37;;;;;;;8.23;5.20;;;33.00;53.90;;;;;;5116615;28;20161;-76
2021/04/18 10:23:10;;;;;;;7.50;4.97;;;33.70;53.20;;;;;;5116278;28;20172;-76
2021/04/18 10:25:37;;;;;;;10.20;5.15;;;32.70;53.80;;;;;;5115242;28;20161;-76
2021/04/18 10:28:04;;;;;;;9.07;5.20;;;33.50;52.80;;;;;;5116780;28;20165;-76
2021/04/18 10:30:31;;;;;;;8.73;5.57;;;33.70;51.50;;;;;;5116230;28;20210;-76
2021/04/18 10:32:57;;;;;;;10.18;5.53;;;34.00;51.40;;;;;;5116281;28;20602;-76
2021/04/18 10:35:23;;;;;;;7.20;4.68;;;33.70;52.10;;;;;;5115855;28;20204;-76
2021/04/18 10:37:49;;;;;;;10.43;4.95;;;34.60;51.20;;;;;;5116152;28;20176;-76
2021/04/18 10:40:16;;;;;;;7.55;4.75;;;35.40;51.10;;;;;;5114970;28;20255;-75
2021/04/18 10:42:43;;;;;;;7.95;5.40;;;35.50;48.90;;;;;;5116368;28;20161;-77
2021/04/18 10:45:10;;;;;;;9.27;5.82;;;35.60;50.60;;;;;;5114804;28;20249;-76
2021/04/18 10:47:36;;;;;;;12.07;5.00;;;34.80;51.60;;;;;;5115737;28;20163;-76
2021/04/18 10:50:03;;;;;;;10.70;5.00;;;34.60;51.90;;;;;;5097843;28;20264;-76
2021/04/18 10:52:29;;;;;;;7.00;4.70;;;34.80;50.20;;;;;;5115982;28;20211;-76
2021/04/18 10:54:55;;;;;;;7.43;5.00;;;35.70;51.00;;;;;;5115948;28;20189;-76
2021/04/18 10:57:21;;;;;;;9.15;4.50;;;34.80;49.00;;;;;;5115627;28;20177;-76
2021/04/18 10:59:46;;;;;;;9.98;5.65;;;34.00;51.60;;;;;;5097431;28;20177;-75
2021/04/18 11:02:12;;;;;;;10.43;5.57;;;33.20;51.50;;;;;;5115847;28;20169;-76
2021/04/18 11:04:37;;;;;;;9.13;5.68;;;33.60;50.80;;;;;;5115737;28;20165;-76
2021/04/18 11:07:04;;;;;;;6.13;4.38;;;34.60;50.90;;;;;;5114679;28;20170;-76
2021/04/18 11:09:30;;;;;;;9.25;5.30;;;33.30;50.80;;;;;;5115680;28;20150;-75
2021/04/18 11:11:56;;;;;;;13.65;4.78;;;33.30;51.70;;;;;;5115286;28;20165;-76
2021/04/18 11:14:22;;;;;;;12.40;5.68;;;33.30;53.00;;;;;;5114169;28;20199;-76
2021/04/18 11:16:48;;;;;;;9.95;5.68;;;32.60;51.80;;;;;;5115879;28;20248;-76
2021/04/18 11:19:14;;;;;;;11.05;5.32;;;32.50;50.40;;;;;;5114204;28;20318;-76
2021/04/18 11:21:40;;;;;;;8.48;5.25;;;33.00;51.60;;;;;;5115125;28;20242;-76
2021/04/18 11:24:06;;;;;;;8.57;6.15;;;33.50;50.50;;;;;;5114040;28;20184;-76
2021/04/18 11:26:31;;;;;;;9.05;7.20;;;33.60;50.10;;;;;;5113541;28;20161;-77
2021/04/18 11:28:57;;;;;;;14.07;7.05;;;30.80;53.30;;;;;;5114211;28;20217;-76
2021/04/18 11:31:23;;;;;;;12.05;7.53;;;30.80;53.20;;;;;;5115238;28;20174;-76
2021/04/18 11:33:49;;;;;;;8.40;7.38;;;30.70;53.20;;;;;;5115383;28;20203;-75
2021/04/18 11:36:18;;;;;;;14.40;7.55;;;30.00;54.60;;;;;;5114150;28;20264;-76
2021/04/18 11:38:44;;;;;;;10.98;7.05;;;30.00;54.90;;;;;;5113788;28;20244;-76
2021/04/18 11:41:10;;;;;;;11.85;6.93;;;28.90;55.90;;;;;;5114928;28;20216;-76
2021/04/18 11:43:36;;;;;;;11.20;7.70;;;29.20;56.90;;;;;;5113822;28;20530;-76
2021/04/18 11:46:02;;;;;;;13.38;7.63;;;30.80;54.80;;;;;;5114640;28;20240;-76
2021/04/18 11:48:28;;;;;;;10.27;7.07;;;31.10;53.10;;;;;;5114665;28;20620;-76
2021/04/18 11:50:53;;;;;;;12.55;7.95;;;30.60;54.50;;;;;;5114927;28;20166;-76
2021/04/18 11:53:19;;;;;;;16.33;7.05;;;29.70;54.60;;;;;;5096502;28;20260;-76
2021/04/18 11:55:45;;;;;;;9.65;6.20;;;30.40;54.60;;;;;;5113322;28;20165;-76
2021/04/18 11:58:12;;;;;;;12.80;6.15;;;30.60;56.30;;;;;;5114714;28;20157;-76
2021/04/18 12:00:38;;;;;;;11.98;7.25;;;30.80;55.30;;;;;;5113629;28;20169;-76
2021/04/18 12:03:05;;;;;;;11.70;6.97;;;30.20;54.40;;;;;;5113197;28;20198;-76
2021/04/18 12:05:31;;;;;;;9.05;6.80;;;29.60;54.60;;;;;;5114665;28;20184;-76
2021/04/18 12:07:56;;;;;;;10.57;6.60;;;30.00;55.70;;;;;;5114415;28;20590;-76
2021/04/18 12:10:22;;;;;;;10.98;5.93;;;29.80;55.00;;;;;;5114469;28;20161;-77
2021/04/18 12:12:49;;;;;;;10.88;6.75;;;30.30;54.40;;;;;;5114265;28;20553;-76
2021/04/18 12:15:16;;;;;;;10.50;5.95;;;30.90;54.60;;;;;;5112779;28;20201;-75
2021/04/18 12:17:42;;;;;;;11.95;6.22;;;30.80;56.30;;;;;;5114387;28;20248;-76
2021/04/18 12:20:10;;;;;;;7.47;5.82;;;29.70;55.00;;;;;;5114553;28;20248;-76
2021/04/18 12:22:36;;;;;;;6.97;5.28;;;29.40;56.20;;;;;;5113130;28;20664;-76
2021/04/18 12:25:02;;;;;;;9.10;5.45;;;28.30;57.40;;;;;;5112987;28;20172;-76
2021/04/18 12:27:28;;;;;;;9.55;6.38;;;28.30;59.90;;;;;;5114123;28;20179;-76
2021/04/18 12:29:54;;;;;;;12.13;6.88;;;28.10;57.30;;;;;;5112969;28;20557;-76
2021/04/18 12:32:20;;;;;;;15.98;7.00;;;26.80;58.20;;;;;;5112558;28;20355;-76
2021/04/18 12:34:45;;;;;;;14.35;6.65;;;25.20;62.60;;;;;;5112811;28;20199;-76
2021/04/18 12:37:11;;;;;;;11.50;7.35;;;23.90;62.50;;;;;;5113860;28;20169;-76
2021/04/18 12:39:37;;;;;;;16.52;6.72;;;22.80;65.60;;;;;;5112960;28;20191;-76
2021/04/18 12:42:03;;;;;;;13.88;6.50;;;22.00;68.80;;;;;;5114377;28;20165;-76